MOL Marvel — V7UP3 — position and weather

sailwx.info

Track history (hours):
 
Tides and Currents Weather Stations Pressure Air Temp Water Temp Dewpoint Dewpoint Depression Visibility Wind Speed Wind Dir Waves Ship Positions

MOL Marvel

Last reported at 2017-Oct-16 22:10 UTC. Time now 2017-Oct-17 02:21 UTC.
Position N 33°46' W 118°16'.

Length 302 m; draft 11.3 m.

Type: Ship (hazmat cat A). MMSI: 538003993.

Date/timePositionNaut miles runAvg speedWind from/ knotsBaromVisibWave heightAir tempDewpointWater temp
2017-Oct-16 22:10N 33°46' W 118°16'0 0.0
2017-Oct-16 21:57N 33°46' W 118°16'1 2.1
2017-Oct-16 21:29N 33°45' W 118°16'2 4.2
2017-Oct-16 21:00N 33°43' W 118°16'4 9.0
2017-Oct-16 20:30N 33°39' W 118°13'3 5.8
2017-Oct-16 20:00N 33°37' W 118°11'3 6.5
2017-Oct-16 19:30N 33°34' W 118°09'4 7.7
2017-Oct-16 19:00N 33°30' W 118°08'4 7.8
2017-Oct-16 18:30N 33°27' W 118°06'4 7.8
2017-Oct-16 18:00N 33°23' W 118°04'4 7.8
2017-Oct-16 17:30N 33°19' W 118°03'4 7.9
2017-Oct-16 17:00N 33°16' W 118°01'4 7.8
2017-Oct-16 16:30N 33°12' W 117°60'4 8.4
2017-Oct-16 16:00N 33°08' W 117°58'3 6.1
2017-Oct-16 15:30N 33°05' W 117°57'912.3
2017-Oct-16 14:49N 32°57' W 117°55'1215.6
2017-Oct-16 14:00N 32°45' W 117°51'815.6
2017-Oct-16 13:30N 32°37' W 117°49'815.6
2017-Oct-16 13:00N 32°30' W 117°46'815.5
2017-Oct-16 12:30N 32°22' W 117°43'815.4
2017-Oct-16 12:00N 32°15' W 117°40'815.4
2017-Oct-16 11:29N 32°08' W 117°37'715.0
2017-Oct-16 11:00N 32°01' W 117°34'2814.7
2017-Oct-16 09:06N 31°34' W 117°24'114.6
2017-Oct-16 09:00N 31°33' W 117°23'714.5
2017-Oct-16 08:30N 31°26' W 117°21'714.5
2017-Oct-16 08:00N 31°19' W 117°18'714.3
2017-Oct-16 07:30N 31°12' W 117°15'814.4
2017-Oct-16 06:59N 31°05' W 117°13'914.5
2017-Oct-16 06:21N 30°57' W 117°09'514.6
2017-Oct-16 06:00N 30°52' W 117°07'714.5
2017-Oct-16 05:30N 30°45' W 117°04'814.7
2017-Oct-16 04:57N 30°37' W 117°01'714.8
2017-Oct-16 04:30N 30°31' W 116°59'815.1
2017-Oct-16 04:00N 30°24' W 116°56'714.9
2017-Oct-16 03:31N 30°17' W 116°53'814.8
2017-Oct-16 03:00N 30°10' W 116°51'815.1
2017-Oct-16 02:30N 30°02' W 116°48'815.3
2017-Oct-16 02:00N 29°55' W 116°45'3315.0
2017-Oct-15 23:48N 29°24' W 116°31'515.1
2017-Oct-15 23:30N 29°20' W 116°30'715.0
2017-Oct-15 23:00N 29°13' W 116°28'714.9
2017-Oct-15 22:30N 29°06' W 116°25'814.9
2017-Oct-15 21:59N 28°58' W 116°23'714.8
2017-Oct-15 21:30N 28°52' W 116°21'814.7
2017-Oct-15 20:56N 28°44' W 116°17'1314.7
2017-Oct-15 20:04N 28°32' W 116°12'214.9
2017-Oct-15 19:58N 28°30' W 116°11'714.8
2017-Oct-15 19:30N 28°24' W 116°09'814.9
2017-Oct-15 18:59N 28°17' W 116°06'814.8
2017-Oct-15 18:27N 28°09' W 116°03'714.8
2017-Oct-15 17:58N 28°02' W 116°01'714.5
2017-Oct-15 17:28N 27°56' W 115°57'714.7
2017-Oct-15 17:00N 27°51' W 115°52'814.9
2017-Oct-15 16:29N 27°45' W 115°47'2119.7
2017-Oct-15 15:26N 27°28' W 115°33'816.9
2017-Oct-15 14:58N 27°22' W 115°27'1515.5
2017-Oct-15 14:00N 27°10' W 115°17'815.6
2017-Oct-15 13:29N 27°03' W 115°12'815.6
2017-Oct-15 13:00N 26°57' W 115°07'815.4
2017-Oct-15 12:30N 26°51' W 115°02'815.4
2017-Oct-15 11:59N 26°45' W 114°56'815.1
2017-Oct-15 11:29N 26°39' W 114°51'815.0
2017-Oct-15 10:57N 26°32' W 114°46'2315.0
2017-Oct-15 09:27N 26°14' W 114°31'715.5
2017-Oct-15 09:00N 26°09' W 114°26'2615.2
2017-Oct-15 07:19N 25°48' W 114°09'1615.1
2017-Oct-15 06:16N 25°36' W 113°58'415.3
2017-Oct-15 06:00N 25°32' W 113°56'815.5
2017-Oct-15 05:30N 25°26' W 113°51'815.8
2017-Oct-15 05:00N 25°20' W 113°45'2515.4
2017-Oct-15 03:24N 25°00' W 113°29'615.2
2017-Oct-15 03:00N 24°55' W 113°25'1015.5
2017-Oct-15 02:21N 24°47' W 113°18'  
Track history (hours):
 
Tides and Currents Weather Stations Pressure Air Temp Water Temp Dewpoint Dewpoint Depression Visibility Wind Speed Wind Dir Waves Ship Positions

MOL Marvel

Last reported at 2017-Oct-16 22:10 UTC. Time now 2017-Oct-17 02:21 UTC.
Position N 33°46' W 118°16'.

Length 302 m; draft 11.3 m.

Type: Ship (hazmat cat A). MMSI: 538003993.

Date/timePositionNaut miles runAvg speedWind from/ knotsBaromVisibWave heightAir tempDewpointWater temp
2017-Oct-16 22:10N 33°46' W 118°16'0 0.0
2017-Oct-16 21:57N 33°46' W 118°16'1 2.1
2017-Oct-16 21:29N 33°45' W 118°16'2 4.2
2017-Oct-16 21:00N 33°43' W 118°16'4 9.0
2017-Oct-16 20:30N 33°39' W 118°13'3 5.8
2017-Oct-16 20:00N 33°37' W 118°11'3 6.5
2017-Oct-16 19:30N 33°34' W 118°09'4 7.7
2017-Oct-16 19:00N 33°30' W 118°08'4 7.8
2017-Oct-16 18:30N 33°27' W 118°06'4 7.8
2017-Oct-16 18:00N 33°23' W 118°04'4 7.8
2017-Oct-16 17:30N 33°19' W 118°03'4 7.9
2017-Oct-16 17:00N 33°16' W 118°01'4 7.8
2017-Oct-16 16:30N 33°12' W 117°60'4 8.4
2017-Oct-16 16:00N 33°08' W 117°58'3 6.1
2017-Oct-16 15:30N 33°05' W 117°57'912.3
2017-Oct-16 14:49N 32°57' W 117°55'1215.6
2017-Oct-16 14:00N 32°45' W 117°51'815.6
2017-Oct-16 13:30N 32°37' W 117°49'815.6
2017-Oct-16 13:00N 32°30' W 117°46'815.5
2017-Oct-16 12:30N 32°22' W 117°43'815.4
2017-Oct-16 12:00N 32°15' W 117°40'815.4
2017-Oct-16 11:29N 32°08' W 117°37'715.0
2017-Oct-16 11:00N 32°01' W 117°34'2814.7
2017-Oct-16 09:06N 31°34' W 117°24'114.6
2017-Oct-16 09:00N 31°33' W 117°23'714.5
2017-Oct-16 08:30N 31°26' W 117°21'714.5
2017-Oct-16 08:00N 31°19' W 117°18'714.3
2017-Oct-16 07:30N 31°12' W 117°15'814.4
2017-Oct-16 06:59N 31°05' W 117°13'914.5
2017-Oct-16 06:21N 30°57' W 117°09'514.6
2017-Oct-16 06:00N 30°52' W 117°07'714.5
2017-Oct-16 05:30N 30°45' W 117°04'814.7
2017-Oct-16 04:57N 30°37' W 117°01'714.8
2017-Oct-16 04:30N 30°31' W 116°59'815.1
2017-Oct-16 04:00N 30°24' W 116°56'714.9
2017-Oct-16 03:31N 30°17' W 116°53'814.8
2017-Oct-16 03:00N 30°10' W 116°51'815.1
2017-Oct-16 02:30N 30°02' W 116°48'815.3
2017-Oct-16 02:00N 29°55' W 116°45'3315.0
2017-Oct-15 23:48N 29°24' W 116°31'515.1
2017-Oct-15 23:30N 29°20' W 116°30'715.0
2017-Oct-15 23:00N 29°13' W 116°28'714.9
2017-Oct-15 22:30N 29°06' W 116°25'814.9
2017-Oct-15 21:59N 28°58' W 116°23'714.8
2017-Oct-15 21:30N 28°52' W 116°21'814.7
2017-Oct-15 20:56N 28°44' W 116°17'1314.7
2017-Oct-15 20:04N 28°32' W 116°12'214.9
2017-Oct-15 19:58N 28°30' W 116°11'714.8
2017-Oct-15 19:30N 28°24' W 116°09'814.9
2017-Oct-15 18:59N 28°17' W 116°06'814.8
2017-Oct-15 18:27N 28°09' W 116°03'714.8
2017-Oct-15 17:58N 28°02' W 116°01'714.5
2017-Oct-15 17:28N 27°56' W 115°57'714.7
2017-Oct-15 17:00N 27°51' W 115°52'814.9
2017-Oct-15 16:29N 27°45' W 115°47'2119.7
2017-Oct-15 15:26N 27°28' W 115°33'816.9
2017-Oct-15 14:58N 27°22' W 115°27'1515.5
2017-Oct-15 14:00N 27°10' W 115°17'815.6
2017-Oct-15 13:29N 27°03' W 115°12'815.6
2017-Oct-15 13:00N 26°57' W 115°07'815.4
2017-Oct-15 12:30N 26°51' W 115°02'815.4
2017-Oct-15 11:59N 26°45' W 114°56'815.1
2017-Oct-15 11:29N 26°39' W 114°51'815.0
2017-Oct-15 10:57N 26°32' W 114°46'2315.0
2017-Oct-15 09:27N 26°14' W 114°31'715.5
2017-Oct-15 09:00N 26°09' W 114°26'2615.2
2017-Oct-15 07:19N 25°48' W 114°09'1615.1
2017-Oct-15 06:16N 25°36' W 113°58'415.3
2017-Oct-15 06:00N 25°32' W 113°56'815.5
2017-Oct-15 05:30N 25°26' W 113°51'815.8
2017-Oct-15 05:00N 25°20' W 113°45'2515.4
2017-Oct-15 03:24N 25°00' W 113°29'615.2
2017-Oct-15 03:00N 24°55' W 113°25'1015.5
2017-Oct-15 02:21N 24°47' W 113°18'  

Dump ship's entire track history